8D3

Sisseton Municipal Airport

Sisseton, South Dakota, USA
METAR K8D3 251656Z AUTO 26008KT 14/M03 A3017 RMK AO1 SLP224 T01391033
Observed Flight Rules
Apr-25 @ 16:56 UTC (59 minutes ago)
Wind
260° at 8 knots
Temperatures Readings
Current 14°C / 57°F
Dewpoint -3°C / 27°F
Humidity 31%
Altimeter 30.17" Hg
Pressure 1022.4 hPa
Elevation 354
METAR K8D3 251656Z AUTO 26008KT 14/M03 A3017 RMK AO1 SLP224 T01391033
Observed Flight Rules
Apr-25 @ 16:56 UTC
(59 minutes ago)
Wind
260° at 8 knots
Temperature Dewpoint
14°C / 57°F -3°C / 27°F
Humidity Altimeter Pressure
31% 30.17" Hg 1022.4 hPa